sensor_id;sensor_type;location;lat;lon;timestamp;temperature;humidity
13794;DHT22;31160;49.500;7.772;2023-02-08T00:02:04;-2.20;99.90
13794;DHT22;31160;49.500;7.772;2023-02-08T00:04:30;-2.20;99.90
13794;DHT22;31160;49.500;7.772;2023-02-08T00:06:57;-2.20;99.90
13794;DHT22;31160;49.500;7.772;2023-02-08T00:09:24;-2.20;99.90
13794;DHT22;31160;49.500;7.772;2023-02-08T00:11:51;-2.20;99.90
13794;DHT22;31160;49.500;7.772;2023-02-08T00:14:17;-2.20;99.90
13794;DHT22;31160;49.500;7.772;2023-02-08T00:16:44;-2.20;99.90
13794;DHT22;31160;49.500;7.772;2023-02-08T00:19:11;-2.20;99.90
13794;DHT22;31160;49.500;7.772;2023-02-08T00:21:37;-2.20;99.90
13794;DHT22;31160;49.500;7.772;2023-02-08T00:24:05;-2.20;99.90
13794;DHT22;31160;49.500;7.772;2023-02-08T00:26:32;-2.20;99.90
13794;DHT22;31160;49.500;7.772;2023-02-08T00:28:59;-2.10;99.90
13794;DHT22;31160;49.500;7.772;2023-02-08T00:31:25;-2.00;99.90
13794;DHT22;31160;49.500;7.772;2023-02-08T00:33:52;-2.20;99.90
13794;DHT22;31160;49.500;7.772;2023-02-08T00:36:19;-2.10;99.90
13794;DHT22;31160;49.500;7.772;2023-02-08T00:38:45;-2.30;99.90
13794;DHT22;31160;49.500;7.772;2023-02-08T00:41:12;-2.10;99.90
13794;DHT22;31160;49.500;7.772;2023-02-08T00:43:39;-2.20;99.90
13794;DHT22;31160;49.500;7.772;2023-02-08T00:46:08;-2.10;99.90
13794;DHT22;31160;49.500;7.772;2023-02-08T00:48:35;-2.00;99.90
13794;DHT22;31160;49.500;7.772;2023-02-08T00:51:09;-1.90;99.90
13794;DHT22;31160;49.500;7.772;2023-02-08T00:53:37;-2.00;99.90
13794;DHT22;31160;49.500;7.772;2023-02-08T00:56:05;-2.00;99.90
13794;DHT22;31160;49.500;7.772;2023-02-08T00:58:32;-2.00;99.90
13794;DHT22;31160;49.500;7.772;2023-02-08T01:00:58;-2.00;99.90
13794;DHT22;31160;49.500;7.772;2023-02-08T01:03:25;-2.00;99.90
13794;DHT22;31160;49.500;7.772;2023-02-08T01:05:53;-2.00;99.90
13794;DHT22;31160;49.500;7.772;2023-02-08T01:08:20;-2.00;99.90
13794;DHT22;31160;49.500;7.772;2023-02-08T01:10:47;-2.00;99.90
13794;DHT22;31160;49.500;7.772;2023-02-08T01:13:14;-2.00;99.90
13794;DHT22;31160;49.500;7.772;2023-02-08T01:15:41;-1.80;99.90
13794;DHT22;31160;49.500;7.772;2023-02-08T01:18:09;-1.90;99.90
13794;DHT22;31160;49.500;7.772;2023-02-08T01:20:36;-2.10;99.90
13794;DHT22;31160;49.500;7.772;2023-02-08T01:23:03;-2.10;99.90
13794;DHT22;31160;49.500;7.772;2023-02-08T01:25:31;-2.10;99.90
13794;DHT22;31160;49.500;7.772;2023-02-08T01:27:58;-2.00;99.90
13794;DHT22;31160;49.500;7.772;2023-02-08T01:30:25;-2.00;99.90
13794;DHT22;31160;49.500;7.772;2023-02-08T01:32:52;-2.00;99.90
13794;DHT22;31160;49.500;7.772;2023-02-08T01:35:18;-2.30;99.90
13794;DHT22;31160;49.500;7.772;2023-02-08T01:37:45;-2.20;99.90
13794;DHT22;31160;49.500;7.772;2023-02-08T01:40:12;-2.20;99.90
13794;DHT22;31160;49.500;7.772;2023-02-08T01:42:38;-2.20;99.90
13794;DHT22;31160;49.500;7.772;2023-02-08T01:45:22;-2.20;99.90
13794;DHT22;31160;49.500;7.772;2023-02-08T01:47:54;-2.10;99.90
13794;DHT22;31160;49.500;7.772;2023-02-08T01:50:26;-2.10;99.90
13794;DHT22;31160;49.500;7.772;2023-02-08T01:52:56;-2.20;99.90
13794;DHT22;31160;49.500;7.772;2023-02-08T01:55:29;-2.30;99.90
13794;DHT22;31160;49.500;7.772;2023-02-08T01:57:59;-2.20;99.90
13794;DHT22;31160;49.500;7.772;2023-02-08T02:00:28;-2.30;99.90
13794;DHT22;31160;49.500;7.772;2023-02-08T02:02:57;-2.20;99.90
13794;DHT22;31160;49.500;7.772;2023-02-08T02:05:29;-2.20;99.90
13794;DHT22;31160;49.500;7.772;2023-02-08T02:07:58;-2.30;99.90
13794;DHT22;31160;49.500;7.772;2023-02-08T02:10:30;-2.40;99.90
13794;DHT22;31160;49.500;7.772;2023-02-08T02:13:04;-2.40;99.90
13794;DHT22;31160;49.500;7.772;2023-02-08T02:15:32;-2.40;99.90
13794;DHT22;31160;49.500;7.772;2023-02-08T02:18:00;-2.30;99.90
13794;DHT22;31160;49.500;7.772;2023-02-08T02:32:08;-2.50;99.90
13794;DHT22;31160;49.500;7.772;2023-02-08T02:40:35;-2.40;99.90
13794;DHT22;31160;49.500;7.772;2023-02-08T02:43:18;-2.50;99.90
13794;DHT22;31160;49.500;7.772;2023-02-08T02:46:26;-2.50;99.90
13794;DHT22;31160;49.500;7.772;2023-02-08T02:49:21;-2.50;99.90
13794;DHT22;31160;49.500;7.772;2023-02-08T02:52:01;-2.50;99.90
13794;DHT22;31160;49.500;7.772;2023-02-08T02:54:45;-2.50;99.90
13794;DHT22;31160;49.500;7.772;2023-02-08T02:57:16;-2.60;99.90
13794;DHT22;31160;49.500;7.772;2023-02-08T02:59:45;-2.70;99.90
13794;DHT22;31160;49.500;7.772;2023-02-08T03:02:12;-2.70;99.90
13794;DHT22;31160;49.500;7.772;2023-02-08T03:13:08;-2.60;99.90
13794;DHT22;31160;49.500;7.772;2023-02-08T03:24:10;-2.70;99.90
13794;DHT22;31160;49.500;7.772;2023-02-08T03:32:05;-2.60;99.90
13794;DHT22;31160;49.500;7.772;2023-02-08T03:37:39;-2.60;99.90
13794;DHT22;31160;49.500;7.772;2023-02-08T03:40:20;-2.60;99.90
13794;DHT22;31160;49.500;7.772;2023-02-08T03:42:49;-2.70;99.90
13794;DHT22;31160;49.500;7.772;2023-02-08T03:45:21;-2.70;99.90
13794;DHT22;31160;49.500;7.772;2023-02-08T03:47:50;-2.60;99.90
13794;DHT22;31160;49.500;7.772;2023-02-08T03:50:20;-2.70;99.90
13794;DHT22;31160;49.500;7.772;2023-02-08T03:52:48;-2.70;99.90
13794;DHT22;31160;49.500;7.772;2023-02-08T03:55:19;-2.80;99.90
13794;DHT22;31160;49.500;7.772;2023-02-08T04:00:39;-2.90;99.90
13794;DHT22;31160;49.500;7.772;2023-02-08T04:03:14;-2.90;99.90
13794;DHT22;31160;49.500;7.772;2023-02-08T04:05:43;-3.00;99.90
13794;DHT22;31160;49.500;7.772;2023-02-08T04:08:09;-3.00;99.90
13794;DHT22;31160;49.500;7.772;2023-02-08T04:10:36;-3.10;99.90
13794;DHT22;31160;49.500;7.772;2023-02-08T04:13:03;-3.10;99.90
13794;DHT22;31160;49.500;7.772;2023-02-08T04:15:30;-3.10;99.90
13794;DHT22;31160;49.500;7.772;2023-02-08T04:17:57;-3.10;99.90
13794;DHT22;31160;49.500;7.772;2023-02-08T04:20:24;-3.20;99.90
13794;DHT22;31160;49.500;7.772;2023-02-08T04:22:51;-3.30;99.90
13794;DHT22;31160;49.500;7.772;2023-02-08T04:25:17;-3.20;99.90
13794;DHT22;31160;49.500;7.772;2023-02-08T04:27:44;-3.30;99.90
13794;DHT22;31160;49.500;7.772;2023-02-08T04:30:11;-3.40;99.90
13794;DHT22;31160;49.500;7.772;2023-02-08T04:32:38;-3.40;99.90
13794;DHT22;31160;49.500;7.772;2023-02-08T04:35:05;-3.40;99.90
13794;DHT22;31160;49.500;7.772;2023-02-08T04:37:32;-3.30;99.90
13794;DHT22;31160;49.500;7.772;2023-02-08T04:39:59;-3.30;99.90
13794;DHT22;31160;49.500;7.772;2023-02-08T04:42:26;-3.30;99.90
13794;DHT22;31160;49.500;7.772;2023-02-08T04:44:52;-3.30;99.90
13794;DHT22;31160;49.500;7.772;2023-02-08T04:47:19;-3.40;99.90
13794;DHT22;31160;49.500;7.772;2023-02-08T04:49:46;-3.40;99.90
13794;DHT22;31160;49.500;7.772;2023-02-08T04:52:12;-3.30;99.90
13794;DHT22;31160;49.500;7.772;2023-02-08T04:54:39;-3.30;99.90
13794;DHT22;31160;49.500;7.772;2023-02-08T04:57:07;-3.30;99.90
13794;DHT22;31160;49.500;7.772;2023-02-08T04:59:35;-3.30;99.90
13794;DHT22;31160;49.500;7.772;2023-02-08T05:02:02;-3.40;99.90
13794;DHT22;31160;49.500;7.772;2023-02-08T05:04:29;-3.40;99.90
13794;DHT22;31160;49.500;7.772;2023-02-08T05:06:56;-3.30;99.90
13794;DHT22;31160;49.500;7.772;2023-02-08T05:09:22;-3.30;99.90
13794;DHT22;31160;49.500;7.772;2023-02-08T05:11:49;-3.20;99.90
13794;DHT22;31160;49.500;7.772;2023-02-08T05:14:16;-3.20;99.90
13794;DHT22;31160;49.500;7.772;2023-02-08T05:16:42;-3.20;99.90
13794;DHT22;31160;49.500;7.772;2023-02-08T05:19:12;-3.20;99.90
13794;DHT22;31160;49.500;7.772;2023-02-08T05:21:39;-3.20;99.90
13794;DHT22;31160;49.500;7.772;2023-02-08T05:24:06;-3.10;99.90
13794;DHT22;31160;49.500;7.772;2023-02-08T05:26:33;-3.10;99.90
13794;DHT22;31160;49.500;7.772;2023-02-08T05:28:59;-3.00;99.90
13794;DHT22;31160;49.500;7.772;2023-02-08T05:31:26;-3.00;99.90
13794;DHT22;31160;49.500;7.772;2023-02-08T05:33:53;-3.10;99.90
13794;DHT22;31160;49.500;7.772;2023-02-08T05:36:20;-2.90;99.90
13794;DHT22;31160;49.500;7.772;2023-02-08T05:38:49;-3.00;99.90
13794;DHT22;31160;49.500;7.772;2023-02-08T05:41:16;-3.00;99.90
13794;DHT22;31160;49.500;7.772;2023-02-08T05:43:43;-2.90;99.90
13794;DHT22;31160;49.500;7.772;2023-02-08T05:46:11;-2.90;99.90
13794;DHT22;31160;49.500;7.772;2023-02-08T05:48:38;-2.90;99.90
13794;DHT22;31160;49.500;7.772;2023-02-08T05:51:04;-2.90;99.90
13794;DHT22;31160;49.500;7.772;2023-02-08T05:53:31;-2.90;99.90
13794;DHT22;31160;49.500;7.772;2023-02-08T05:55:58;-2.80;99.90
13794;DHT22;31160;49.500;7.772;2023-02-08T05:58:25;-2.80;99.90
13794;DHT22;31160;49.500;7.772;2023-02-08T06:00:52;-2.80;99.90
13794;DHT22;31160;49.500;7.772;2023-02-08T06:03:19;-3.00;99.90
13794;DHT22;31160;49.500;7.772;2023-02-08T06:05:46;-2.90;99.90
13794;DHT22;31160;49.500;7.772;2023-02-08T06:08:13;-2.80;99.90
13794;DHT22;31160;49.500;7.772;2023-02-08T06:10:39;-2.70;99.90
13794;DHT22;31160;49.500;7.772;2023-02-08T06:13:06;-2.80;99.90
13794;DHT22;31160;49.500;7.772;2023-02-08T06:15:33;-2.80;99.90
13794;DHT22;31160;49.500;7.772;2023-02-08T06:18:00;-3.00;99.90
13794;DHT22;31160;49.500;7.772;2023-02-08T06:20:26;-2.80;99.90
13794;DHT22;31160;49.500;7.772;2023-02-08T06:22:54;-2.80;99.90
13794;DHT22;31160;49.500;7.772;2023-02-08T06:25:21;-2.80;99.90
13794;DHT22;31160;49.500;7.772;2023-02-08T06:27:48;-2.80;99.90
13794;DHT22;31160;49.500;7.772;2023-02-08T06:30:14;-2.90;99.90
13794;DHT22;31160;49.500;7.772;2023-02-08T06:32:41;-2.80;99.90
13794;DHT22;31160;49.500;7.772;2023-02-08T06:35:08;-2.90;99.90
13794;DHT22;31160;49.500;7.772;2023-02-08T06:37:35;-2.90;99.90
13794;DHT22;31160;49.500;7.772;2023-02-08T06:40:03;-3.00;99.90
13794;DHT22;31160;49.500;7.772;2023-02-08T06:42:30;-3.00;99.90
13794;DHT22;31160;49.500;7.772;2023-02-08T06:44:56;-2.90;99.90
13794;DHT22;31160;49.500;7.772;2023-02-08T06:47:25;-2.80;99.90
13794;DHT22;31160;49.500;7.772;2023-02-08T06:49:52;-2.80;99.90
13794;DHT22;31160;49.500;7.772;2023-02-08T06:52:19;-2.90;99.90
13794;DHT22;31160;49.500;7.772;2023-02-08T06:54:46;-2.90;99.90
13794;DHT22;31160;49.500;7.772;2023-02-08T06:57:13;-2.90;99.90
13794;DHT22;31160;49.500;7.772;2023-02-08T06:59:41;-2.90;99.90
13794;DHT22;31160;49.500;7.772;2023-02-08T07:02:12;-2.80;99.90
13794;DHT22;31160;49.500;7.772;2023-02-08T07:04:39;-2.90;99.90
13794;DHT22;31160;49.500;7.772;2023-02-08T07:07:06;-2.80;99.90
13794;DHT22;31160;49.500;7.772;2023-02-08T07:09:34;-2.70;99.90
13794;DHT22;31160;49.500;7.772;2023-02-08T07:12:02;-2.60;99.90
13794;DHT22;31160;49.500;7.772;2023-02-08T07:14:36;-2.60;99.90
13794;DHT22;31160;49.500;7.772;2023-02-08T07:17:04;-2.80;99.90
13794;DHT22;31160;49.500;7.772;2023-02-08T07:19:30;-2.70;99.90
13794;DHT22;31160;49.500;7.772;2023-02-08T07:21:57;-2.70;99.90
13794;DHT22;31160;49.500;7.772;2023-02-08T07:24:38;-2.70;99.90
13794;DHT22;31160;49.500;7.772;2023-02-08T07:27:06;-2.60;99.90
13794;DHT22;31160;49.500;7.772;2023-02-08T07:29:34;-2.50;99.90
13794;DHT22;31160;49.500;7.772;2023-02-08T07:32:01;-2.50;99.90
13794;DHT22;31160;49.500;7.772;2023-02-08T07:34:30;-2.50;99.90
13794;DHT22;31160;49.500;7.772;2023-02-08T07:36:57;-2.50;99.90
13794;DHT22;31160;49.500;7.772;2023-02-08T07:39:24;-2.40;99.90
13794;DHT22;31160;49.500;7.772;2023-02-08T07:41:51;-2.50;99.90
13794;DHT22;31160;49.500;7.772;2023-02-08T07:44:18;-2.40;99.90
13794;DHT22;31160;49.500;7.772;2023-02-08T07:46:45;-2.30;99.90
13794;DHT22;31160;49.500;7.772;2023-02-08T07:49:11;-2.30;99.90
13794;DHT22;31160;49.500;7.772;2023-02-08T07:51:38;-2.20;99.90
13794;DHT22;31160;49.500;7.772;2023-02-08T07:54:05;-2.20;99.90
13794;DHT22;31160;49.500;7.772;2023-02-08T07:56:31;-2.20;99.90
13794;DHT22;31160;49.500;7.772;2023-02-08T07:58:58;-2.00;99.90
13794;DHT22;31160;49.500;7.772;2023-02-08T08:01:25;-2.00;99.90
13794;DHT22;31160;49.500;7.772;2023-02-08T08:03:51;-1.90;99.90
13794;DHT22;31160;49.500;7.772;2023-02-08T08:06:19;-1.70;99.90
13794;DHT22;31160;49.500;7.772;2023-02-08T08:08:46;-1.60;99.90
13794;DHT22;31160;49.500;7.772;2023-02-08T08:11:14;-1.50;99.90
13794;DHT22;31160;49.500;7.772;2023-02-08T08:13:41;-1.60;99.90
13794;DHT22;31160;49.500;7.772;2023-02-08T08:16:09;-1.50;99.90
13794;DHT22;31160;49.500;7.772;2023-02-08T08:18:36;-1.40;99.90
13794;DHT22;31160;49.500;7.772;2023-02-08T08:21:03;-1.20;99.90
13794;DHT22;31160;49.500;7.772;2023-02-08T08:23:30;-1.20;99.90
13794;DHT22;31160;49.500;7.772;2023-02-08T08:25:59;-1.10;99.90
13794;DHT22;31160;49.500;7.772;2023-02-08T08:28:26;-1.10;99.90
13794;DHT22;31160;49.500;7.772;2023-02-08T08:30:53;-1.00;99.90
13794;DHT22;31160;49.500;7.772;2023-02-08T08:33:20;-1.00;99.90
13794;DHT22;31160;49.500;7.772;2023-02-08T08:35:46;-0.90;99.90
13794;DHT22;31160;49.500;7.772;2023-02-08T08:38:13;-0.70;99.90
13794;DHT22;31160;49.500;7.772;2023-02-08T08:40:40;-0.60;99.90
13794;DHT22;31160;49.500;7.772;2023-02-08T08:43:07;-0.60;99.90
13794;DHT22;31160;49.500;7.772;2023-02-08T08:45:34;-0.60;99.90
13794;DHT22;31160;49.500;7.772;2023-02-08T08:48:05;-0.50;99.90
13794;DHT22;31160;49.500;7.772;2023-02-08T08:50:31;-0.40;99.90
13794;DHT22;31160;49.500;7.772;2023-02-08T08:52:58;-0.30;99.90
13794;DHT22;31160;49.500;7.772;2023-02-08T08:55:25;-0.20;99.90
13794;DHT22;31160;49.500;7.772;2023-02-08T08:57:53;-0.10;99.90
13794;DHT22;31160;49.500;7.772;2023-02-08T09:00:20;-0.40;99.90
13794;DHT22;31160;49.500;7.772;2023-02-08T09:02:47;-0.30;99.90
13794;DHT22;31160;49.500;7.772;2023-02-08T09:05:14;-0.20;99.90
13794;DHT22;31160;49.500;7.772;2023-02-08T09:07:41;-0.10;99.90
13794;DHT22;31160;49.500;7.772;2023-02-08T09:10:08;0.10;99.90
13794;DHT22;31160;49.500;7.772;2023-02-08T09:12:35;0.10;99.90
13794;DHT22;31160;49.500;7.772;2023-02-08T09:15:02;0.30;99.90
13794;DHT22;31160;49.500;7.772;2023-02-08T09:17:29;0.40;99.90
13794;DHT22;31160;49.500;7.772;2023-02-08T09:19:55;0.40;99.90
13794;DHT22;31160;49.500;7.772;2023-02-08T09:22:22;0.40;99.90
13794;DHT22;31160;49.500;7.772;2023-02-08T09:24:51;0.50;99.90
13794;DHT22;31160;49.500;7.772;2023-02-08T09:27:17;0.50;99.90
13794;DHT22;31160;49.500;7.772;2023-02-08T09:29:44;0.60;99.90
13794;DHT22;31160;49.500;7.772;2023-02-08T09:32:11;0.60;99.90
13794;DHT22;31160;49.500;7.772;2023-02-08T09:34:38;0.60;99.90
13794;DHT22;31160;49.500;7.772;2023-02-08T09:37:04;0.70;99.90
13794;DHT22;31160;49.500;7.772;2023-02-08T09:39:32;0.70;99.90
13794;DHT22;31160;49.500;7.772;2023-02-08T09:45:50;0.90;99.50
13794;DHT22;31160;49.500;7.772;2023-02-08T09:48:02;1.10;99.40
13794;DHT22;31160;49.500;7.772;2023-02-08T09:50:39;1.10;99.40
13794;DHT22;31160;49.500;7.772;2023-02-08T09:53:15;1.30;99.00
13794;DHT22;31160;49.500;7.772;2023-02-08T09:55:45;1.40;98.50
13794;DHT22;31160;49.500;7.772;2023-02-08T09:58:24;1.40;98.40
13794;DHT22;31160;49.500;7.772;2023-02-08T10:00:53;1.40;97.80
13794;DHT22;31160;49.500;7.772;2023-02-08T10:03:33;1.50;98.00
13794;DHT22;31160;49.500;7.772;2023-02-08T10:06:02;1.40;97.90
13794;DHT22;31160;49.500;7.772;2023-02-08T10:08:29;1.50;97.80
13794;DHT22;31160;49.500;7.772;2023-02-08T10:11:19;1.30;97.60
13794;DHT22;31160;49.500;7.772;2023-02-08T10:17:04;1.40;97.50
13794;DHT22;31160;49.500;7.772;2023-02-08T10:25:05;1.40;97.10
13794;DHT22;31160;49.500;7.772;2023-02-08T10:35:47;1.60;96.70
13794;DHT22;31160;49.500;7.772;2023-02-08T10:40:48;1.80;96.70
13794;DHT22;31160;49.500;7.772;2023-02-08T10:43:20;1.90;96.50
13794;DHT22;31160;49.500;7.772;2023-02-08T10:45:55;2.10;96.30
13794;DHT22;31160;49.500;7.772;2023-02-08T10:51:20;2.00;95.90
13794;DHT22;31160;49.500;7.772;2023-02-08T10:53:47;2.20;96.00
13794;DHT22;31160;49.500;7.772;2023-02-08T10:59:04;2.40;95.60
13794;DHT22;31160;49.500;7.772;2023-02-08T11:01:32;2.40;95.30
13794;DHT22;31160;49.500;7.772;2023-02-08T11:04:05;2.20;95.30
13794;DHT22;31160;49.500;7.772;2023-02-08T11:06:32;2.30;95.50
13794;DHT22;31160;49.500;7.772;2023-02-08T11:08:59;2.40;94.70
13794;DHT22;31160;49.500;7.772;2023-02-08T11:11:26;2.50;94.90
13794;DHT22;31160;49.500;7.772;2023-02-08T11:14:12;2.50;94.30
13794;DHT22;31160;49.500;7.772;2023-02-08T11:16:40;2.60;94.70
13794;DHT22;31160;49.500;7.772;2023-02-08T11:19:21;2.70;94.90
13794;DHT22;31160;49.500;7.772;2023-02-08T11:21:49;2.50;93.60
13794;DHT22;31160;49.500;7.772;2023-02-08T11:24:36;2.50;94.40
13794;DHT22;31160;49.500;7.772;2023-02-08T11:27:36;2.50;95.20
13794;DHT22;31160;49.500;7.772;2023-02-08T11:32:45;2.70;95.00
13794;DHT22;31160;49.500;7.772;2023-02-08T11:35:20;2.90;95.20
13794;DHT22;31160;49.500;7.772;2023-02-08T11:37:49;2.90;94.90
13794;DHT22;31160;49.500;7.772;2023-02-08T11:40:30;2.90;94.90
13794;DHT22;31160;49.500;7.772;2023-02-08T11:42:59;2.90;94.90
13794;DHT22;31160;49.500;7.772;2023-02-08T11:45:35;2.90;94.70
13794;DHT22;31160;49.500;7.772;2023-02-08T11:48:03;2.80;93.90
13794;DHT22;31160;49.500;7.772;2023-02-08T11:50:34;2.90;93.40
13794;DHT22;31160;49.500;7.772;2023-02-08T11:53:04;3.00;92.80
13794;DHT22;31160;49.500;7.772;2023-02-08T11:55:32;3.10;92.90
13794;DHT22;31160;49.500;7.772;2023-02-08T12:00:38;3.10;93.00
13794;DHT22;31160;49.500;7.772;2023-02-08T12:03:18;3.30;92.80
13794;DHT22;31160;49.500;7.772;2023-02-08T12:11:34;3.40;91.50
13794;DHT22;31160;49.500;7.772;2023-02-08T12:14:17;3.30;91.10
13794;DHT22;31160;49.500;7.772;2023-02-08T12:22:12;3.40;90.60
13794;DHT22;31160;49.500;7.772;2023-02-08T12:24:54;3.40;90.10
13794;DHT22;31160;49.500;7.772;2023-02-08T12:30:38;3.20;90.10
13794;DHT22;31160;49.500;7.772;2023-02-08T12:50:09;3.70;90.00
13794;DHT22;31160;49.500;7.772;2023-02-08T12:52:45;3.60;88.20
13794;DHT22;31160;49.500;7.772;2023-02-08T12:57:47;3.50;88.80
13794;DHT22;31160;49.500;7.772;2023-02-08T13:00:35;3.40;88.50
13794;DHT22;31160;49.500;7.772;2023-02-08T13:03:10;3.40;88.00
13794;DHT22;31160;49.500;7.772;2023-02-08T13:05:45;3.40;89.10
13794;DHT22;31160;49.500;7.772;2023-02-08T13:11:05;3.40;88.70
13794;DHT22;31160;49.500;7.772;2023-02-08T13:13:52;3.40;88.50
13794;DHT22;31160;49.500;7.772;2023-02-08T13:16:24;3.30;87.50
13794;DHT22;31160;49.500;7.772;2023-02-08T13:18:54;3.30;88.80
13794;DHT22;31160;49.500;7.772;2023-02-08T13:21:27;3.60;87.90
13794;DHT22;31160;49.500;7.772;2023-02-08T13:23:57;3.70;86.20
13794;DHT22;31160;49.500;7.772;2023-02-08T13:26:28;3.60;85.70
13794;DHT22;31160;49.500;7.772;2023-02-08T13:28:58;3.40;87.10
13794;DHT22;31160;49.500;7.772;2023-02-08T13:31:53;3.60;86.80
13794;DHT22;31160;49.500;7.772;2023-02-08T13:34:28;3.70;86.70
13794;DHT22;31160;49.500;7.772;2023-02-08T13:37:00;3.80;87.40
13794;DHT22;31160;49.500;7.772;2023-02-08T13:39:42;3.70;88.00
13794;DHT22;31160;49.500;7.772;2023-02-08T13:42:26;3.50;87.90
13794;DHT22;31160;49.500;7.772;2023-02-08T13:44:55;3.60;88.90
13794;DHT22;31160;49.500;7.772;2023-02-08T13:47:26;3.60;89.50
13794;DHT22;31160;49.500;7.772;2023-02-08T13:49:55;3.40;90.10
13794;DHT22;31160;49.500;7.772;2023-02-08T13:58:24;3.60;91.40
13794;DHT22;31160;49.500;7.772;2023-02-08T14:03:31;3.50;91.10
13794;DHT22;31160;49.500;7.772;2023-02-08T14:06:03;3.40;91.60
13794;DHT22;31160;49.500;7.772;2023-02-08T14:08:47;3.40;92.00
13794;DHT22;31160;49.500;7.772;2023-02-08T14:14:18;3.70;91.80
13794;DHT22;31160;49.500;7.772;2023-02-08T14:19:34;3.60;91.30
13794;DHT22;31160;49.500;7.772;2023-02-08T14:27:39;3.40;92.30
13794;DHT22;31160;49.500;7.772;2023-02-08T14:32:49;3.40;92.80
13794;DHT22;31160;49.500;7.772;2023-02-08T14:35:21;3.50;92.90
13794;DHT22;31160;49.500;7.772;2023-02-08T14:37:51;3.40;92.80
13794;DHT22;31160;49.500;7.772;2023-02-08T14:40:53;3.40;92.60
13794;DHT22;31160;49.500;7.772;2023-02-08T14:43:40;3.40;92.30
13794;DHT22;31160;49.500;7.772;2023-02-08T14:46:41;3.40;92.30
13794;DHT22;31160;49.500;7.772;2023-02-08T14:49:14;3.40;92.40
13794;DHT22;31160;49.500;7.772;2023-02-08T14:51:49;3.30;92.40
13794;DHT22;31160;49.500;7.772;2023-02-08T14:54:31;3.40;92.50
13794;DHT22;31160;49.500;7.772;2023-02-08T14:57:03;3.40;92.30
13794;DHT22;31160;49.500;7.772;2023-02-08T14:59:33;3.40;92.30
13794;DHT22;31160;49.500;7.772;2023-02-08T15:02:11;3.50;92.30
13794;DHT22;31160;49.500;7.772;2023-02-08T15:04:42;3.40;92.30
13794;DHT22;31160;49.500;7.772;2023-02-08T15:10:03;3.40;92.00
13794;DHT22;31160;49.500;7.772;2023-02-08T15:12:33;3.40;91.70
13794;DHT22;31160;49.500;7.772;2023-02-08T15:15:02;3.30;92.20
13794;DHT22;31160;49.500;7.772;2023-02-08T15:17:34;3.30;92.50
13794;DHT22;31160;49.500;7.772;2023-02-08T15:20:05;3.10;91.80
13794;DHT22;31160;49.500;7.772;2023-02-08T15:22:37;3.20;92.10
13794;DHT22;31160;49.500;7.772;2023-02-08T15:25:24;3.20;92.40
13794;DHT22;31160;49.500;7.772;2023-02-08T15:27:57;3.20;92.30
13794;DHT22;31160;49.500;7.772;2023-02-08T15:30:35;3.10;92.30
13794;DHT22;31160;49.500;7.772;2023-02-08T15:33:08;3.00;92.10
13794;DHT22;31160;49.500;7.772;2023-02-08T15:35:35;3.10;92.40
13794;DHT22;31160;49.500;7.772;2023-02-08T15:38:03;3.00;92.10
13794;DHT22;31160;49.500;7.772;2023-02-08T15:40:33;2.90;92.30
13794;DHT22;31160;49.500;7.772;2023-02-08T15:43:11;2.90;92.20
13794;DHT22;31160;49.500;7.772;2023-02-08T15:45:38;2.80;92.30
13794;DHT22;31160;49.500;7.772;2023-02-08T15:48:06;3.00;92.50
13794;DHT22;31160;49.500;7.772;2023-02-08T15:50:33;2.90;92.30
13794;DHT22;31160;49.500;7.772;2023-02-08T15:53:05;2.90;92.50
13794;DHT22;31160;49.500;7.772;2023-02-08T15:55:38;2.90;92.70
13794;DHT22;31160;49.500;7.772;2023-02-08T15:58:14;2.80;92.70
13794;DHT22;31160;49.500;7.772;2023-02-08T16:00:42;2.80;92.50
13794;DHT22;31160;49.500;7.772;2023-02-08T16:03:19;2.70;93.00
13794;DHT22;31160;49.500;7.772;2023-02-08T16:05:50;2.70;93.40
13794;DHT22;31160;49.500;7.772;2023-02-08T16:08:33;2.60;93.70
13794;DHT22;31160;49.500;7.772;2023-02-08T16:13:32;2.60;94.40
13794;DHT22;31160;49.500;7.772;2023-02-08T16:16:25;2.50;94.30
13794;DHT22;31160;49.500;7.772;2023-02-08T16:19:03;2.50;94.00
13794;DHT22;31160;49.500;7.772;2023-02-08T16:21:37;2.40;94.50
13794;DHT22;31160;49.500;7.772;2023-02-08T16:26:44;2.30;94.60
13794;DHT22;31160;49.500;7.772;2023-02-08T16:29:38;2.50;94.80
13794;DHT22;31160;49.500;7.772;2023-02-08T16:32:27;2.30;94.90
13794;DHT22;31160;49.500;7.772;2023-02-08T16:34:54;2.30;94.90
13794;DHT22;31160;49.500;7.772;2023-02-08T16:37:29;2.30;94.80
13794;DHT22;31160;49.500;7.772;2023-02-08T16:40:01;2.20;95.00
13794;DHT22;31160;49.500;7.772;2023-02-08T16:42:35;2.10;95.20
13794;DHT22;31160;49.500;7.772;2023-02-08T16:47:36;1.90;96.10
13794;DHT22;31160;49.500;7.772;2023-02-08T16:50:04;1.90;96.10
13794;DHT22;31160;49.500;7.772;2023-02-08T16:52:32;1.80;96.40
13794;DHT22;31160;49.500;7.772;2023-02-08T16:54:59;1.80;97.60
13794;DHT22;31160;49.500;7.772;2023-02-08T16:57:41;1.70;98.60
13794;DHT22;31160;49.500;7.772;2023-02-08T17:00:17;1.60;99.50
13794;DHT22;31160;49.500;7.772;2023-02-08T17:02:44;1.60;99.90
13794;DHT22;31160;49.500;7.772;2023-02-08T17:05:11;1.50;99.90
13794;DHT22;31160;49.500;7.772;2023-02-08T17:07:38;1.40;99.90
13794;DHT22;31160;49.500;7.772;2023-02-08T17:10:06;1.20;99.90
13794;DHT22;31160;49.500;7.772;2023-02-08T17:12:33;1.10;99.90
13794;DHT22;31160;49.500;7.772;2023-02-08T17:15:00;1.00;99.90
13794;DHT22;31160;49.500;7.772;2023-02-08T17:17:26;0.90;99.90
13794;DHT22;31160;49.500;7.772;2023-02-08T17:19:53;0.90;99.90
13794;DHT22;31160;49.500;7.772;2023-02-08T17:22:20;0.70;99.90
13794;DHT22;31160;49.500;7.772;2023-02-08T17:24:46;0.70;99.90
13794;DHT22;31160;49.500;7.772;2023-02-08T17:27:13;0.60;99.90
13794;DHT22;31160;49.500;7.772;2023-02-08T17:29:40;0.60;99.90
13794;DHT22;31160;49.500;7.772;2023-02-08T17:32:07;0.50;99.90
13794;DHT22;31160;49.500;7.772;2023-02-08T17:34:34;0.40;99.90
13794;DHT22;31160;49.500;7.772;2023-02-08T17:37:02;0.30;99.90
13794;DHT22;31160;49.500;7.772;2023-02-08T17:39:28;0.30;99.90
13794;DHT22;31160;49.500;7.772;2023-02-08T17:41:55;0.20;99.90
13794;DHT22;31160;49.500;7.772;2023-02-08T17:44:23;0.20;99.90
13794;DHT22;31160;49.500;7.772;2023-02-08T17:46:49;0.20;99.90
13794;DHT22;31160;49.500;7.772;2023-02-08T17:49:16;0.10;99.90
13794;DHT22;31160;49.500;7.772;2023-02-08T17:51:43;0.10;99.90
13794;DHT22;31160;49.500;7.772;2023-02-08T17:54:09;0.10;99.90
13794;DHT22;31160;49.500;7.772;2023-02-08T17:56:37;0.10;99.90
13794;DHT22;31160;49.500;7.772;2023-02-08T17:59:04;0.00;99.90
13794;DHT22;31160;49.500;7.772;2023-02-08T18:01:31;0.00;99.90
13794;DHT22;31160;49.500;7.772;2023-02-08T18:03:59;-0.20;99.90
13794;DHT22;31160;49.500;7.772;2023-02-08T18:06:26;-0.20;99.90
13794;DHT22;31160;49.500;7.772;2023-02-08T18:08:54;-0.30;99.90
13794;DHT22;31160;49.500;7.772;2023-02-08T18:11:21;-0.40;99.90
13794;DHT22;31160;49.500;7.772;2023-02-08T18:13:51;-0.30;99.90
13794;DHT22;31160;49.500;7.772;2023-02-08T18:16:21;-0.30;99.90
13794;DHT22;31160;49.500;7.772;2023-02-08T18:18:49;-0.30;99.90
13794;DHT22;31160;49.500;7.772;2023-02-08T18:21:18;-0.40;99.90
13794;DHT22;31160;49.500;7.772;2023-02-08T18:23:46;-0.40;99.90
13794;DHT22;31160;49.500;7.772;2023-02-08T18:26:15;-0.40;99.90